Time;durP1;ratioP1;P1;durP2;ratioP2;P2;SDS_P1;SDS_P2;PMS_P1;PMS_P2;Temp;Humidity;BMP_temperature;BMP_pressure;BME280_temperature;BME280_humidity;BME280_pressure;Samples;Min_cycle;Max_cycle;Signal;HPM_P1;HPM_P2
2022/12/15 00:39:44;;;;;;;5.73;3.20;;;;;;;-145.06;100.00;60892.56;6009857;23;20004;-90
2022/12/15 00:42:27;;;;;;;5.07;3.13;;;;;;;-145.06;100.00;60892.56;5999072;23;20004;-90
2022/12/15 00:45:07;;;;;;;6.40;3.27;;;;;;;-145.06;100.00;60892.56;5998472;23;20005;-90
2022/12/15 00:47:46;;;;;;;5.90;2.70;;;;;;;-145.06;100.00;60892.56;6009711;23;20004;-89
2022/12/15 01:20:40;;;;;;;4.00;2.37;;;;;;;-145.06;100.00;60892.56;6009712;23;20008;-90
2022/12/15 01:23:12;;;;;;;5.90;3.17;;;;;;;-145.06;100.00;60892.56;5999694;23;20008;-91
2022/12/15 01:25:53;;;;;;;6.03;3.00;;;;;;;-145.06;100.00;60892.56;5998606;23;20008;-90
2022/12/15 01:28:32;;;;;;;4.00;2.63;;;;;;;-145.06;100.00;60892.56;5998392;23;20008;-90
2022/12/15 01:31:11;;;;;;;5.13;3.10;;;;;;;-145.06;100.00;60892.56;5997579;23;20009;-90
2022/12/15 01:33:53;;;;;;;6.72;3.33;;;;;;;-145.06;100.00;60892.56;5998497;23;20005;-90
2022/12/15 01:36:32;;;;;;;5.90;3.10;;;;;;;-145.06;100.00;60892.56;5997644;23;20892;-90
2022/12/15 01:39:11;;;;;;;6.90;2.97;;;;;;;-145.06;100.00;60892.56;5998563;23;20079;-91
2022/12/15 01:41:50;;;;;;;5.70;2.50;;;;;;;-145.06;100.00;60892.56;5997914;23;20028;-90
2022/12/15 01:44:29;;;;;;;5.55;2.88;;;;;;;-145.06;100.00;60892.56;5997901;23;20477;-90
2022/12/15 01:47:12;;;;;;;5.33;2.90;;;;;;;-145.06;100.00;60892.56;5998324;23;20502;-89
2022/12/15 01:49:52;;;;;;;5.33;2.93;;;;;;;-145.06;100.00;60892.56;5996823;23;20307;-89
2022/12/15 01:52:32;;;;;;;5.10;3.00;;;;;;;-145.06;100.00;60892.56;5997987;23;20607;-90
2022/12/15 01:55:12;;;;;;;4.15;2.42;;;;;;;-145.06;100.00;60892.56;5998270;23;20000;-91
2022/12/15 01:57:55;;;;;;;4.67;2.93;;;;;;;-145.06;100.00;60892.56;5997754;23;20009;-90
2022/12/15 02:00:35;;;;;;;4.60;2.60;;;;;;;-145.06;100.00;60892.56;5998026;23;20008;-89
2022/12/15 02:03:15;;;;;;;3.83;2.70;;;;;;;-145.06;100.00;60892.56;5997339;23;20467;-91
2022/12/15 02:05:54;;;;;;;5.45;2.72;;;;;;;-145.06;100.00;60892.56;5997323;23;20012;-91
2022/12/15 02:08:35;;;;;;;4.23;2.70;;;;;;;-145.06;100.00;60892.56;5997980;23;20008;-90
2022/12/15 02:11:43;;;;;;;6.03;3.00;;;;;;;-145.06;100.00;60892.56;5997893;23;20583;-91
2022/12/15 02:14:45;;;;;;;5.67;2.97;;;;;;;-145.06;100.00;60892.56;5998374;23;20008;-90
2022/12/15 02:17:52;;;;;;;4.83;2.30;;;;;;;-145.06;100.00;60892.56;5997480;23;20028;-90
2022/12/15 02:20:46;;;;;;;5.50;2.60;;;;;;;-145.06;100.00;60892.56;5998071;23;20008;-92
2022/12/15 02:23:34;;;;;;;4.10;2.60;;;;;;;-145.06;100.00;60892.56;5997684;23;20001;-90
2022/12/15 02:26:39;;;;;;;4.40;2.50;;;;;;;-145.06;100.00;60892.56;5998939;23;20324;-90
2022/12/15 02:29:45;;;;;;;5.30;2.87;;;;;;;-145.06;100.00;60892.56;5998794;23;20005;-90
2022/12/15 02:32:36;;;;;;;5.13;3.00;;;;;;;-145.06;100.00;60892.56;5999406;23;20663;-90
2022/12/15 02:35:54;;;;;;;4.73;2.80;;;;;;;-145.06;100.00;60892.56;5998560;23;20001;-89
2022/12/15 02:38:36;;;;;;;5.17;2.80;;;;;;;-145.06;100.00;60892.56;5999070;23;20013;-90
2022/12/15 02:41:50;;;;;;;4.70;2.60;;;;;;;-145.06;100.00;60892.56;5998973;23;20009;-90
2022/12/15 02:44:42;;;;;;;4.33;2.50;;;;;;;-145.06;100.00;60892.56;5951685;23;20004;-90
2022/12/15 02:47:39;;;;;;;5.43;2.83;;;;;;;-145.06;100.00;60892.56;5999191;23;20038;-91
2022/12/15 02:50:36;;;;;;;5.43;3.27;;;;;;;-145.06;100.00;60892.56;5999248;23;20035;-90
2022/12/15 02:53:44;;;;;;;5.13;2.90;;;;;;;-145.06;100.00;60892.56;5999721;23;20009;-90
2022/12/15 02:56:41;;;;;;;5.63;2.90;;;;;;;-145.06;100.00;60892.56;5999252;23;20001;-90
2022/12/15 02:59:38;;;;;;;4.50;2.87;;;;;;;-145.06;100.00;60892.56;6010208;23;20004;-90
2022/12/15 03:02:18;;;;;;;4.40;2.60;;;;;;;-145.06;100.00;60892.56;5998681;23;20004;-89
2022/12/15 03:04:57;;;;;;;6.55;3.13;;;;;;;-145.06;100.00;60892.56;5999145;23;20009;-91
2022/12/15 03:07:37;;;;;;;4.97;2.67;;;;;;;-145.06;100.00;60892.56;5998643;23;20012;-90
2022/12/15 03:10:16;;;;;;;5.53;3.25;;;;;;;-145.06;100.00;60892.56;5998656;23;20012;-90
2022/12/15 03:12:57;;;;;;;6.17;3.13;;;;;;;-145.06;100.00;60892.56;5999379;23;20595;-91
2022/12/15 03:15:36;;;;;;;5.50;3.13;;;;;;;-145.06;100.00;60892.56;5999516;23;20000;-90
2022/12/15 03:18:15;;;;;;;5.15;2.92;;;;;;;-145.06;100.00;60892.56;5999149;23;20737;-91
2022/12/15 03:20:55;;;;;;;6.05;3.45;;;;;;;-145.06;100.00;60892.56;5999618;23;20012;-89
2022/12/15 03:23:34;;;;;;;5.15;2.97;;;;;;;-145.06;100.00;60892.56;6000241;23;20030;-91
2022/12/15 03:26:12;;;;;;;5.60;3.38;;;;;;;-145.06;100.00;60892.56;6002186;23;20005;-90
2022/12/15 03:28:51;;;;;;;4.55;2.95;;;;;;;-145.06;100.00;60892.56;6005253;23;19996;-91
2022/12/15 03:31:30;;;;;;;6.10;3.17;;;;;;;-145.06;100.00;60892.56;6016868;23;20009;-90
2022/12/15 03:34:10;;;;;;;6.07;3.95;;;;;;;-145.06;100.00;60892.56;5999324;23;20001;-91
2022/12/15 03:36:48;;;;;;;5.35;3.35;;;;;;;-145.06;100.00;60892.56;5998701;23;20013;-90
2022/12/15 03:39:27;;;;;;;4.88;3.05;;;;;;;-145.06;100.00;60892.56;5999392;23;20004;-89
2022/12/15 03:42:06;;;;;;;5.28;2.92;;;;;;;-145.06;100.00;60892.56;5999632;23;20320;-91
2022/12/15 03:44:45;;;;;;;4.55;2.75;;;;;;;-145.06;100.00;60892.56;5998948;23;20005;-89
2022/12/15 03:47:25;;;;;;;6.47;3.10;;;;;;;-145.06;100.00;60892.56;5999131;23;20012;-90
2022/12/15 03:50:04;;;;;;;5.60;3.00;;;;;;;-145.06;100.00;60892.56;5997823;23;20032;-91
2022/12/15 03:52:43;;;;;;;4.45;2.75;;;;;;;-145.06;100.00;60892.56;5999495;23;20005;-90
2022/12/15 03:55:23;;;;;;;4.80;2.85;;;;;;;-145.06;100.00;60892.56;5999116;23;20028;-91
2022/12/15 03:58:02;;;;;;;5.07;3.00;;;;;;;-145.06;100.00;60892.56;5998407;23;20016;-90
2022/12/15 04:00:41;;;;;;;4.57;3.08;;;;;;;-145.06;100.00;60892.56;5998004;23;20008;-89
2022/12/15 04:03:20;;;;;;;5.93;2.83;;;;;;;-145.06;100.00;60892.56;5999211;23;20008;-89
2022/12/15 04:05:59;;;;;;;5.13;2.90;;;;;;;-145.06;100.00;60892.56;5998578;23;20005;-90
2022/12/15 04:08:38;;;;;;;6.00;3.10;;;;;;;-145.06;100.00;60892.56;5998700;23;20462;-90
2022/12/15 04:11:18;;;;;;;3.83;2.20;;;;;;;-145.06;100.00;60892.56;5998097;23;20008;-89
2022/12/15 04:13:56;;;;;;;4.55;2.72;;;;;;;-145.06;100.00;60892.56;5998594;23;20087;-89
2022/12/15 04:16:35;;;;;;;5.15;2.95;;;;;;;-145.06;100.00;60892.56;5998559;23;20008;-90
2022/12/15 04:22:12;;;;;;;6.90;3.07;;;;;;;-145.06;100.00;60892.56;6008752;23;20038;-90
2022/12/15 05:33:19;;;;;;;5.50;2.57;;;;;;;-145.06;100.00;60892.56;6010801;23;20004;-92
2022/12/15 05:35:58;;;;;;;4.65;2.80;;;;;;;-145.06;100.00;60892.56;5999048;23;20441;-90
2022/12/15 05:38:37;;;;;;;4.50;2.95;;;;;;;-145.06;100.00;60892.56;5997210;23;20083;-90
2022/12/15 05:41:17;;;;;;;4.85;2.72;;;;;;;-145.06;100.00;60892.56;5999951;23;20032;-91
2022/12/15 05:43:57;;;;;;;3.57;2.20;;;;;;;-145.06;100.00;60892.56;6000177;23;20005;-91
2022/12/15 05:46:39;;;;;;;6.97;2.55;;;;;;;-145.06;100.00;60892.56;6001042;23;20040;-90
2022/12/15 05:49:18;;;;;;;4.60;2.50;;;;;;;-145.06;100.00;60892.56;6001566;23;20000;-93
2022/12/15 05:51:58;;;;;;;4.05;2.40;;;;;;;-145.06;100.00;60892.56;5999338;23;20008;-91
2022/12/15 05:54:36;;;;;;;3.13;2.35;;;;;;;-145.06;100.00;60892.56;5999691;23;20008;-91
2022/12/15 05:57:16;;;;;;;4.93;2.85;;;;;;;-145.06;100.00;60892.56;5999648;23;20001;-91
2022/12/15 05:59:55;;;;;;;3.80;2.58;;;;;;;-145.06;100.00;60892.56;5999331;23;20008;-90
2022/12/15 06:02:34;;;;;;;5.15;2.45;;;;;;;-145.06;100.00;60892.56;5999828;23;20008;-89
2022/12/15 06:05:13;;;;;;;4.70;2.65;;;;;;;-145.06;100.00;60892.56;5998539;23;20013;-90
2022/12/15 06:07:52;;;;;;;6.38;3.15;;;;;;;-145.06;100.00;60892.56;5996717;23;20016;-90
2022/12/15 06:10:31;;;;;;;4.38;2.60;;;;;;;-145.06;100.00;60892.56;5996618;23;20320;-90
2022/12/15 06:13:10;;;;;;;5.20;2.42;;;;;;;-145.06;100.00;60892.56;5996349;23;20439;-90
2022/12/15 06:16:06;;;;;;;4.38;2.38;;;;;;;-145.06;100.00;60892.56;5995357;23;20539;-89
2022/12/15 06:18:53;;;;;;;3.73;1.93;;;;;;;-145.06;100.00;60892.56;5993843;23;20036;-89
2022/12/15 06:21:34;;;;;;;3.70;2.37;;;;;;;-145.06;100.00;60892.56;5994406;23;20035;-90
2022/12/15 06:24:13;;;;;;;3.10;1.90;;;;;;;-145.06;100.00;60892.56;5994942;23;20431;-89
2022/12/15 06:26:52;;;;;;;4.10;2.63;;;;;;;-145.06;100.00;60892.56;5995417;23;20012;-90
2022/12/15 06:29:31;;;;;;;4.95;2.47;;;;;;;-145.06;100.00;60892.56;5995359;23;20481;-89
2022/12/15 06:32:10;;;;;;;4.55;2.50;;;;;;;-145.06;100.00;60892.56;5994843;23;20004;-90
2022/12/15 06:34:49;;;;;;;3.28;2.38;;;;;;;-145.06;100.00;60892.56;5995100;23;20001;-89
2022/12/15 06:37:28;;;;;;;3.50;2.20;;;;;;;-145.06;100.00;60892.56;5994871;23;20032;-90
2022/12/15 06:40:07;;;;;;;3.80;2.42;;;;;;;-145.06;100.00;60892.56;5994485;23;20008;-90
2022/12/15 06:42:46;;;;;;;4.30;2.60;;;;;;;-145.06;100.00;60892.56;5995391;23;20028;-89
2022/12/15 06:45:25;;;;;;;5.85;2.47;;;;;;;-145.06;100.00;60892.56;5994308;23;20012;-89
2022/12/15 06:48:04;;;;;;;4.20;2.10;;;;;;;-145.06;100.00;60892.56;5995223;23;20194;-91
2022/12/15 06:50:44;;;;;;;4.18;2.55;;;;;;;-145.06;100.00;60892.56;5994867;23;20083;-90
2022/12/15 06:53:23;;;;;;;4.30;2.80;;;;;;;-145.06;100.00;60892.56;5994089;23;20005;-89
2022/12/15 06:56:06;;;;;;;3.53;2.40;;;;;;;-145.06;100.00;60892.56;5996287;23;20009;-90
2022/12/15 06:58:50;;;;;;;4.30;2.10;;;;;;;-145.06;100.00;60892.56;5994928;23;20005;-88
2022/12/15 07:01:30;;;;;;;4.57;2.50;;;;;;;-145.06;100.00;60892.56;5995593;23;20005;-90
2022/12/15 07:04:10;;;;;;;3.73;2.43;;;;;;;-145.06;100.00;60892.56;5994603;23;20005;-90
2022/12/15 07:06:49;;;;;;;5.00;2.83;;;;;;;-145.06;100.00;60892.56;5994851;23;20013;-91
2022/12/15 07:09:28;;;;;;;3.55;2.20;;;;;;;-145.06;100.00;60892.56;5994964;23;20095;-89
2022/12/15 07:12:10;;;;;;;4.32;2.25;;;;;;;-145.06;100.00;60892.56;5996646;23;20297;-90
2022/12/15 07:14:49;;;;;;;4.00;2.10;;;;;;;-145.06;100.00;60892.56;5996873;23;20001;-90
2022/12/15 07:17:28;;;;;;;4.40;2.67;;;;;;;-145.06;100.00;60892.56;5997136;23;20012;-89
2022/12/15 07:20:08;;;;;;;3.60;2.30;;;;;;;-145.06;100.00;60892.56;5996685;23;20008;-90
2022/12/15 07:22:51;;;;;;;4.32;2.42;;;;;;;-145.06;100.00;60892.56;5997329;23;20005;-89
2022/12/15 07:25:30;;;;;;;4.23;2.60;;;;;;;-145.06;100.00;60892.56;5996750;23;20005;-89
2022/12/15 07:28:10;;;;;;;4.05;2.40;;;;;;;-145.06;100.00;60892.56;5996626;23;20005;-90
2022/12/15 07:30:49;;;;;;;4.05;2.22;;;;;;;-145.06;100.00;60892.56;5995926;23;20008;-90
2022/12/15 07:33:30;;;;;;;3.35;2.20;;;;;;;-145.06;100.00;60892.56;5997169;23;20008;-90
2022/12/15 07:36:09;;;;;;;3.77;2.53;;;;;;;-145.06;100.00;60892.56;5997051;23;20000;-89
2022/12/15 07:38:49;;;;;;;4.87;2.80;;;;;;;-145.06;100.00;60892.56;5996895;23;20008;-89
2022/12/15 07:41:28;;;;;;;3.25;2.08;;;;;;;-145.06;100.00;60892.56;5996855;23;20008;-90
2022/12/15 07:44:07;;;;;;;4.65;2.78;;;;;;;-145.06;100.00;60892.56;5996196;23;20008;-89
2022/12/15 07:46:49;;;;;;;3.95;2.50;;;;;;;-145.06;100.00;60892.56;5996867;23;20004;-90
2022/12/15 07:49:28;;;;;;;5.40;2.50;;;;;;;-145.06;100.00;60892.56;5996627;23;20004;-90
2022/12/15 07:52:07;;;;;;;4.55;2.30;;;;;;;-145.06;100.00;60892.56;5997233;23;20005;-89
2022/12/15 07:54:45;;;;;;;5.80;3.17;;;;;;;-145.06;100.00;60892.56;6007323;23;20000;-89
2022/12/15 07:57:25;;;;;;;6.07;3.03;;;;;;;-145.06;100.00;60892.56;5996987;23;20035;-89
2022/12/15 08:00:04;;;;;;;6.63;3.00;;;;;;;-145.06;100.00;60892.56;5997217;23;20005;-90
2022/12/15 08:02:43;;;;;;;6.07;3.23;;;;;;;-145.06;100.00;60892.56;5997273;23;20004;-91
2022/12/15 08:05:22;;;;;;;5.22;2.88;;;;;;;-145.06;100.00;60892.56;5996376;23;20013;-90
2022/12/15 08:08:02;;;;;;;6.32;3.30;;;;;;;-145.06;100.00;60892.56;5997631;23;20012;-90
2022/12/15 08:10:41;;;;;;;8.15;3.30;;;;;;;-145.06;100.00;60892.56;5996589;23;20009;-89
2022/12/15 08:13:20;;;;;;;7.05;3.78;;;;;;;-145.06;100.00;60892.56;5996048;23;20008;-90
2022/12/15 08:15:59;;;;;;;6.95;3.53;;;;;;;-145.06;100.00;60892.56;6006678;23;20005;-91
2022/12/15 08:18:38;;;;;;;4.82;2.70;;;;;;;-145.06;100.00;60892.56;5995384;23;20005;-89
2022/12/15 08:21:17;;;;;;;4.97;2.88;;;;;;;-145.06;100.00;60892.56;5995409;23;20000;-90
2022/12/15 08:23:57;;;;;;;5.20;3.03;;;;;;;-145.06;100.00;60892.56;5995674;23;20005;-91
2022/12/15 08:26:37;;;;;;;6.28;2.92;;;;;;;-145.06;100.00;60892.56;5996211;23;20008;-90
2022/12/15 08:29:16;;;;;;;6.75;3.45;;;;;;;-145.06;100.00;60892.56;5995500;23;20009;-91
2022/12/15 08:31:55;;;;;;;6.90;3.50;;;;;;;-145.06;100.00;60892.56;5996368;23;20373;-91
2022/12/15 08:34:34;;;;;;;6.22;3.22;;;;;;;-145.06;100.00;60892.56;5995416;23;20012;-90
2022/12/15 08:37:13;;;;;;;7.03;3.70;;;;;;;-145.06;100.00;60892.56;5995549;23;20036;-90
2022/12/15 08:39:52;;;;;;;5.95;3.45;;;;;;;-145.06;100.00;60892.56;5995228;23;20032;-89
2022/12/15 08:42:35;;;;;;;3.47;2.50;;;;;;;-145.06;100.00;60892.56;5996029;23;20013;-90
2022/12/15 08:45:15;;;;;;;5.23;2.80;;;;;;;-145.06;100.00;60892.56;5995527;23;20035;-89
2022/12/15 08:47:55;;;;;;;4.00;2.60;;;;;;;-145.06;100.00;60892.56;5996662;23;20013;-90
2022/12/15 08:50:34;;;;;;;6.27;3.20;;;;;;;-145.06;100.00;60892.56;5995245;23;20092;-89
2022/12/15 08:53:13;;;;;;;5.15;2.63;;;;;;;-145.06;100.00;60892.56;5996110;23;20004;-90
2022/12/15 08:55:52;;;;;;;5.47;2.78;;;;;;;-145.06;100.00;60892.56;5996166;23;20013;-89
2022/12/15 08:58:32;;;;;;;3.67;2.38;;;;;;;-145.06;100.00;60892.56;5995219;23;20005;-90
2022/12/15 09:01:16;;;;;;;4.13;2.65;;;;;;;-145.06;100.00;60892.56;5996221;23;20091;-89
2022/12/15 09:03:56;;;;;;;4.30;2.77;;;;;;;-145.06;100.00;60892.56;5995779;23;20172;-90
2022/12/15 09:06:35;;;;;;;4.63;2.83;;;;;;;-145.06;100.00;60892.56;5995259;23;20009;-91
2022/12/15 09:09:15;;;;;;;3.83;2.45;;;;;;;-145.06;100.00;60892.56;5994898;23;20044;-88
2022/12/15 09:11:53;;;;;;;3.97;2.47;;;;;;;-145.06;100.00;60892.56;5995154;23;20008;-90
2022/12/15 09:14:32;;;;;;;4.45;2.78;;;;;;;-145.06;100.00;60892.56;5996405;23;20043;-90
2022/12/15 09:17:11;;;;;;;5.75;3.28;;;;;;;-145.06;100.00;60892.56;5995996;23;20095;-90
2022/12/15 09:19:51;;;;;;;6.20;2.92;;;;;;;-145.06;100.00;60892.56;5994982;23;20320;-90
2022/12/15 09:22:30;;;;;;;4.17;2.77;;;;;;;-145.06;100.00;60892.56;5996050;23;20004;-90
2022/12/15 09:25:09;;;;;;;4.40;2.40;;;;;;;-145.06;100.00;60892.56;5994834;23;20005;-89
2022/12/15 09:27:48;;;;;;;3.58;2.42;;;;;;;-145.06;100.00;60892.56;5995780;23;20686;-90
2022/12/15 09:30:27;;;;;;;5.60;2.78;;;;;;;-145.06;100.00;60892.56;5994858;23;20318;-90
2022/12/15 09:33:06;;;;;;;5.53;3.20;;;;;;;-145.06;100.00;60892.56;5994880;23;20008;-89
2022/12/15 09:35:52;;;;;;;7.07;2.85;;;;;;;-145.06;100.00;60892.56;5995342;23;20004;-89
2022/12/15 09:38:34;;;;;;;4.30;2.70;;;;;;;-145.06;100.00;60892.56;5997304;23;20008;-89
2022/12/15 09:41:13;;;;;;;3.90;2.50;;;;;;;-145.06;100.00;60892.56;5996270;23;20012;-89
2022/12/15 09:44:01;;;;;;;4.88;2.53;;;;;;;-145.06;100.00;60892.56;5996311;23;20016;-91
2022/12/15 09:47:05;;;;;;;5.80;3.13;;;;;;;-145.06;100.00;60892.56;5994995;23;20004;-89
2022/12/15 09:49:57;;;;;;;5.17;2.93;;;;;;;-145.06;100.00;60892.56;5996169;23;20004;-90
2022/12/15 09:52:47;;;;;;;4.73;2.80;;;;;;;-145.06;100.00;60892.56;5995363;23;20009;-92
2022/12/15 09:55:34;;;;;;;5.00;3.00;;;;;;;-145.06;100.00;60892.56;5995595;23;20300;-89
2022/12/15 09:58:51;;;;;;;5.30;2.77;;;;;;;-145.06;100.00;60892.56;5995598;23;20004;-89
2022/12/15 10:01:43;;;;;;;4.07;2.73;;;;;;;-145.06;100.00;60892.56;5991915;23;20040;-89
2022/12/15 10:04:40;;;;;;;5.23;2.90;;;;;;;-145.06;100.00;60892.56;5995219;23;20004;-89
2022/12/15 10:07:39;;;;;;;4.53;3.00;;;;;;;-145.06;100.00;60892.56;5995553;23;20008;-91
2022/12/15 10:10:18;;;;;;;3.22;2.08;;;;;;;-145.06;100.00;60892.56;5995224;23;20013;-89
2022/12/15 10:13:19;;;;;;;5.65;2.72;;;;;;;-145.06;100.00;60892.56;5996023;23;20659;-90
2022/12/15 10:16:03;;;;;;;5.87;3.00;;;;;;;-145.06;100.00;60892.56;5995302;23;20071;-89
2022/12/15 10:19:04;;;;;;;5.33;3.00;;;;;;;-145.06;100.00;60892.56;5996021;23;20009;-89
2022/12/15 10:21:43;;;;;;;4.40;2.70;;;;;;;-145.06;100.00;60892.56;5994793;23;20008;-89
2022/12/15 10:24:26;;;;;;;5.43;3.10;;;;;;;-145.06;100.00;60892.56;5995629;23;20008;-89
2022/12/15 10:27:23;;;;;;;4.33;2.50;;;;;;;-145.06;100.00;60892.56;6005798;23;20013;-90
2022/12/15 10:30:07;;;;;;;4.20;2.70;;;;;;;-145.06;100.00;60892.56;5994761;23;20012;-89
2022/12/15 10:33:06;;;;;;;8.00;3.40;;;;;;;-145.06;100.00;60892.56;5996241;23;20435;-90
2022/12/15 10:35:46;;;;;;;7.07;3.90;;;;;;;-145.06;100.00;60892.56;5995373;23;20008;-90
2022/12/15 10:38:44;;;;;;;8.23;4.10;;;;;;;-145.06;100.00;60892.56;5996474;23;20239;-90
2022/12/15 10:41:26;;;;;;;6.47;3.40;;;;;;;-145.06;100.00;60892.56;5996427;23;20443;-89
2022/12/15 10:44:23;;;;;;;8.83;3.53;;;;;;;-145.06;100.00;60892.56;5996976;23;20008;-90
2022/12/15 10:47:09;;;;;;;8.00;3.67;;;;;;;-145.06;100.00;60892.56;5998968;23;20001;-90
2022/12/15 10:49:49;;;;;;;6.93;3.63;;;;;;;-145.06;100.00;60892.56;5999510;23;20079;-90
2022/12/15 10:52:33;;;;;;;;;;;;;;;-145.06;100.00;60892.56;6000252;23;20036;-89
2022/12/15 10:55:58;;;;;;;6.27;3.30;;;;;;;-145.06;100.00;60892.56;5999256;23;20575;-89
2022/12/15 10:58:49;;;;;;;4.77;2.67;;;;;;;-145.06;100.00;60892.56;5890779;23;20472;-90
2022/12/15 11:01:32;;;;;;;6.23;3.30;;;;;;;-145.06;100.00;60892.56;5911665;23;20405;-91
2022/12/15 11:04:31;;;;;;;5.17;3.10;;;;;;;-145.06;100.00;60892.56;6012430;23;20008;-91
2022/12/15 11:07:13;;;;;;;5.53;3.30;;;;;;;-145.06;100.00;60892.56;5999471;23;20084;-90
2022/12/15 11:09:59;;;;;;;6.00;3.10;;;;;;;-145.06;100.00;60892.56;5999846;23;20013;-91
2022/12/15 11:12:50;;;;;;;4.90;3.20;;;;;;;-145.06;100.00;60892.56;5999751;23;20040;-91
2022/12/15 11:15:52;;;;;;;4.77;2.87;;;;;;;-145.06;100.00;60892.56;6000127;23;20000;-90
2022/12/15 11:18:39;;;;;;;5.90;3.10;;;;;;;-145.06;100.00;60892.56;6000193;23;20009;-90
2022/12/15 11:21:26;;;;;;;5.73;3.03;;;;;;;-145.06;100.00;60892.56;5999988;23;20001;-91
2022/12/15 11:24:24;;;;;;;4.47;2.80;;;;;;;-145.06;100.00;60892.56;6001447;23;20005;-91
2022/12/15 11:27:21;;;;;;;4.43;2.75;;;;;;;-145.06;100.00;60892.56;6000634;23;20080;-90
2022/12/15 11:30:01;;;;;;;5.60;3.33;;;;;;;-145.06;100.00;60892.56;6000508;23;20013;-92
2022/12/15 11:32:45;;;;;;;6.10;3.80;;;;;;;-145.06;100.00;60892.56;6000912;23;20012;-92
2022/12/15 11:35:49;;;;;;;6.10;3.85;;;;;;;-145.06;100.00;60892.56;6001648;23;20005;-92
2022/12/15 11:38:39;;;;;;;6.63;3.90;;;;;;;-145.06;100.00;60892.56;6001019;23;20008;-93
2022/12/15 11:41:49;;;;;;;5.43;3.50;;;;;;;-145.06;100.00;60892.56;6001669;23;20004;-91
2022/12/15 11:44:53;;;;;;;4.40;2.90;;;;;;;-145.06;100.00;60892.56;6001441;23;20431;-91
2022/12/15 11:47:51;;;;;;;6.85;3.92;;;;;;;-145.06;100.00;60892.56;6000960;23;20008;-91
2022/12/15 11:50:35;;;;;;;5.60;3.72;;;;;;;-145.06;100.00;60892.56;6001126;23;20312;-91
2022/12/15 11:53:40;;;;;;;6.35;4.00;;;;;;;-145.06;100.00;60892.56;6001609;23;20435;-90
2022/12/15 11:56:34;;;;;;;6.95;4.28;;;;;;;-145.06;100.00;60892.56;6001290;23;20005;-92
2022/12/15 11:59:46;;;;;;;5.95;3.92;;;;;;;-145.06;100.00;60892.56;6001162;23;20004;-90
2022/12/15 12:02:37;;;;;;;7.25;3.90;;;;;;;-145.06;100.00;60892.56;6000979;23;20431;-92
2022/12/15 12:05:28;;;;;;;9.13;4.25;;;;;;;-145.06;100.00;60892.56;5999930;23;20008;-91
2022/12/15 12:08:13;;;;;;;6.03;3.90;;;;;;;-145.06;100.00;60892.56;6000536;23;20013;-93
2022/12/15 12:10:52;;;;;;;7.35;4.50;;;;;;;-145.06;100.00;60892.56;6000347;23;20008;-93
2022/12/15 12:13:49;;;;;;;5.97;3.90;;;;;;;-145.06;100.00;60892.56;6000079;23;20004;-92
2022/12/15 12:16:40;;;;;;;7.25;4.35;;;;;;;-145.06;100.00;60892.56;6000211;23;20024;-93
2022/12/15 12:19:29;;;;;;;5.72;3.75;;;;;;;-145.06;100.00;60892.56;5999941;23;20005;-91
2022/12/15 12:22:33;;;;;;;6.70;4.18;;;;;;;-145.06;100.00;60892.56;6000903;23;20012;-92
2022/12/15 12:25:18;;;;;;;7.00;4.10;;;;;;;-145.06;100.00;60892.56;6000241;23;20008;-92
2022/12/15 12:28:15;;;;;;;5.40;3.83;;;;;;;-145.06;100.00;60892.56;6000539;23;20004;-91
2022/12/15 12:30:56;;;;;;;6.32;3.80;;;;;;;-145.06;100.00;60892.56;6000683;23;20004;-91
2022/12/15 12:33:43;;;;;;;6.93;4.32;;;;;;;-145.06;100.00;60892.56;5999904;23;20496;-91
2022/12/15 12:36:22;;;;;;;6.38;4.10;;;;;;;-145.06;100.00;60892.56;6000821;23;20005;-91
2022/12/15 12:39:01;;;;;;;6.15;3.63;;;;;;;-145.06;100.00;60892.56;5999598;23;20009;-91
2022/12/15 12:41:51;;;;;;;6.00;3.90;;;;;;;-145.06;100.00;60892.56;6000130;23;20036;-91
2022/12/15 12:44:36;;;;;;;6.90;4.28;;;;;;;-145.06;100.00;60892.56;5999909;23;20032;-92
2022/12/15 12:47:18;;;;;;;5.70;3.78;;;;;;;-145.06;100.00;60892.56;5999681;23;20028;-92
2022/12/15 12:50:13;;;;;;;6.97;4.18;;;;;;;-145.06;100.00;60892.56;6000142;23;20005;-92
2022/12/15 12:52:56;;;;;;;7.38;4.47;;;;;;;-145.06;100.00;60892.56;5999788;23;20017;-91
2022/12/15 12:55:41;;;;;;;7.93;4.32;;;;;;;-145.06;100.00;60892.56;6000363;23;20016;-90
2022/12/15 12:58:44;;;;;;;7.20;4.38;;;;;;;-145.06;100.00;60892.56;5999928;23;20316;-91
2022/12/15 13:01:30;;;;;;;7.32;4.50;;;;;;;-145.06;100.00;60892.56;6000036;23;20012;-91
2022/12/15 13:04:32;;;;;;;6.10;3.95;;;;;;;-145.06;100.00;60892.56;6000460;23;20004;-91
2022/12/15 13:07:39;;;;;;;7.47;4.15;;;;;;;-145.06;100.00;60892.56;5999758;23;20064;-90
2022/12/15 13:10:20;;;;;;;6.15;3.72;;;;;;;-145.06;100.00;60892.56;6000246;23;20009;-91
2022/12/15 13:13:29;;;;;;;8.02;4.28;;;;;;;-145.06;100.00;60892.56;6000552;23;20009;-91
2022/12/15 13:16:26;;;;;;;7.32;3.90;;;;;;;-145.06;100.00;60892.56;5999877;23;20348;-92
2022/12/15 13:19:07;;;;;;;8.85;4.22;;;;;;;-145.06;100.00;60892.56;5999886;23;20079;-91
2022/12/15 13:21:51;;;;;;;6.85;4.20;;;;;;;-145.06;100.00;60892.56;6000076;23;20001;-92
2022/12/15 13:24:40;;;;;;;7.88;4.82;;;;;;;-145.06;100.00;60892.56;6000615;23;20300;-90
2022/12/15 13:27:19;;;;;;;7.47;4.40;;;;;;;-145.06;100.00;60892.56;6000840;23;20004;-92
2022/12/15 13:30:01;;;;;;;7.27;4.53;;;;;;;-145.06;100.00;60892.56;6000495;23;20083;-92
2022/12/15 13:32:50;;;;;;;7.72;4.90;;;;;;;-145.06;100.00;60892.56;6000727;23;20005;-91
2022/12/15 13:35:31;;;;;;;9.48;5.57;;;;;;;-145.06;100.00;60892.56;6000625;23;20060;-92
2022/12/15 13:38:17;;;;;;;7.50;4.60;;;;;;;-145.06;100.00;60892.56;6000706;23;20032;-91
2022/12/15 13:40:56;;;;;;;8.25;4.97;;;;;;;-145.06;100.00;60892.56;6000327;23;20013;-91
2022/12/15 13:43:45;;;;;;;8.33;5.03;;;;;;;-145.06;100.00;60892.56;6000793;23;20004;-91
2022/12/15 13:46:27;;;;;;;9.38;5.63;;;;;;;-145.06;100.00;60892.56;6000484;23;20004;-91
2022/12/15 13:49:12;;;;;;;8.93;5.00;;;;;;;-145.06;100.00;60892.56;6000401;23;20424;-90
2022/12/15 13:51:59;;;;;;;8.18;5.00;;;;;;;-145.06;100.00;60892.56;6000602;23;20009;-92
2022/12/15 13:54:41;;;;;;;8.48;5.03;;;;;;;-145.06;100.00;60892.56;6001092;23;20087;-91
2022/12/15 13:57:23;;;;;;;10.02;5.53;;;;;;;-145.06;100.00;60892.56;6000469;23;20012;-91
2022/12/15 14:00:05;;;;;;;7.68;4.88;;;;;;;-145.06;100.00;60892.56;5999888;23;20009;-92
2022/12/15 14:02:44;;;;;;;9.25;5.20;;;;;;;-145.06;100.00;60892.56;6000463;23;20004;-91
2022/12/15 14:05:24;;;;;;;8.23;5.00;;;;;;;-145.06;100.00;60892.56;6000302;23;20004;-90
2022/12/15 14:08:11;;;;;;;8.60;5.18;;;;;;;-145.06;100.00;60892.56;6000298;23;20009;-92
2022/12/15 14:10:53;;;;;;;9.23;5.18;;;;;;;-145.06;100.00;60892.56;5999785;23;20435;-92
2022/12/15 14:13:35;;;;;;;10.32;5.53;;;;;;;-145.06;100.00;60892.56;6000005;23;20012;-90
2022/12/15 14:16:18;;;;;;;9.52;5.35;;;;;;;-145.06;100.00;60892.56;6000500;23;20012;-92
2022/12/15 14:19:17;;;;;;;9.60;5.75;;;;;;;-145.06;100.00;60892.56;6000378;23;20035;-90
2022/12/15 14:21:58;;;;;;;9.52;5.75;;;;;;;-145.06;100.00;60892.56;6002986;23;20004;-91
2022/12/15 14:24:43;;;;;;;9.02;5.65;;;;;;;-145.06;100.00;60892.56;6002404;23;20355;-91
2022/12/15 14:27:29;;;;;;;8.80;5.13;;;;;;;-145.06;100.00;60892.56;6002578;23;20315;-92
2022/12/15 14:30:17;;;;;;;12.23;5.18;;;;;;;-145.06;100.00;60892.56;6001522;23;20320;-90
2022/12/15 14:33:11;;;;;;;9.25;5.60;;;;;;;-145.06;100.00;60892.56;6001763;23;20008;-90
2022/12/15 14:35:57;;;;;;;10.13;6.35;;;;;;;-145.06;100.00;60892.56;6002266;23;20036;-91
2022/12/15 14:38:42;;;;;;;11.40;6.53;;;;;;;-145.06;100.00;60892.56;6002449;23;20316;-91
2022/12/15 14:41:32;;;;;;;9.93;5.70;;;;;;;-145.06;100.00;60892.56;6002094;23;20593;-93
2022/12/15 14:44:29;;;;;;;10.05;5.68;;;;;;;-145.06;100.00;60892.56;6002664;23;20001;-92
2022/12/15 14:47:21;;;;;;;12.75;6.60;;;;;;;-145.06;100.00;60892.56;6002424;23;20004;-92
2022/12/15 14:50:02;;;;;;;13.65;8.10;;;;;;;-145.06;100.00;60892.56;6002020;23;20008;-90